Erwin, South Dakota
Current Conditions -  °F | °C
As of 7:53 AM on Tuesday 21 Oct 2014 (Local Time) from KATY Reporting Station
Clear Clear  
Wind Chill: 39°   Ceiling: Unl
Heat Index: 46°   Visibility: 10mi
Dew Point: 37°   Wind: 17mph
Humidity: 71%   Direction: 150°SSE
Pressure: 30.03"   Gusts: NA
Location:  44.49°N, 97.45°W
Report Text: KATY 211253Z AUTO 15015KT 10SM CLR 08/03 A3003 RMK AO2 SLP175 T00780028
Loading
Personal Weather Stations






























Interactive Weather Map
Tropical Storm Tracking
New forecast layout! Learn more

10-Day Weather Forecast

Advertisements
Track Severe Weather on mobile